Time;durP1;ratioP1;P1;durP2;ratioP2;P2;SDS_P1;SDS_P2;PMS_P1;PMS_P2;Temp;Humidity;BMP_temperature;BMP_pressure;BME280_temperature;BME280_humidity;BME280_pressure;Samples;Min_cycle;Max_cycle;Signal;HPM_P1;HPM_P2
2022/05/09 00:01:00;;;;;;;9.47;3.30;;;3.20;1.00;;;;;;5018168;28;20128;-26
2022/05/09 00:03:26;;;;;;;1.90;1.50;;;3.00;1.00;;;;;;5018965;28;20041;-25
2022/05/09 00:05:51;;;;;;;2.70;1.33;;;2.70;1.00;;;;;;5018686;28;20095;-25
2022/05/09 00:08:17;;;;;;;3.57;1.30;;;2.30;1.00;;;;;;5019196;28;20481;-25
2022/05/09 00:10:43;;;;;;;1.93;1.20;;;2.10;1.00;;;;;;5019571;28;20038;-25
2022/05/09 00:13:08;;;;;;;2.77;1.00;;;2.70;1.00;;;;;;5019393;28;20045;-25
2022/05/09 00:15:34;;;;;;;2.27;1.10;;;1.80;1.00;;;;;;5018420;28;20065;-26
2022/05/09 00:18:00;;;;;;;1.47;0.87;;;1.90;1.00;;;;;;5029269;28;20548;-26
2022/05/09 00:20:25;;;;;;;4.07;1.20;;;2.10;1.00;;;;;;4997055;28;20132;-26
2022/05/09 00:22:54;;;;;;;13.70;1.43;;;1.60;1.00;;;;;;5016552;28;20177;-26
2022/05/09 00:25:23;;;;;;;31.00;2.60;;;1.70;1.00;;;;;;5015941;28;20046;-26
2022/05/09 00:27:49;;;;;;;61.00;4.17;;;1.60;1.00;;;;;;5016388;28;20042;-27
2022/05/09 00:30:16;;;;;;;9.83;1.23;;;1.70;1.00;;;;;;5015297;28;20456;-27
2022/05/09 00:32:42;;;;;;;5.70;1.23;;;1.50;1.00;;;;;;5015805;28;20077;-26
2022/05/09 00:35:10;;;;;;;72.97;5.70;;;1.50;6.30;;;;;;5019417;28;20084;-27
2022/05/09 00:37:36;;;;;;;12.07;2.03;;;1.60;52.30;;;;;;5014848;28;20125;-27
2022/05/09 00:40:05;;;;;;;37.37;2.50;;;1.50;61.40;;;;;;5015271;28;20058;-26
2022/05/09 00:42:31;;;;;;;10.50;1.53;;;1.40;48.40;;;;;;5016163;28;20485;-26
2022/05/09 00:44:57;;;;;;;1.23;0.70;;;1.30;63.00;;;;;;4998660;28;20049;-26
2022/05/09 00:47:23;;;;;;;29.40;2.37;;;1.40;73.20;;;;;;5015224;28;20038;-27
2022/05/09 00:49:57;;;;;;;4.00;1.33;;;1.40;83.80;;;;;;5024110;28;20049;-26
2022/05/09 00:52:23;;;;;;;169.03;5.00;;;1.20;99.90;;;;;;5035787;28;20081;-26
2022/05/09 00:54:56;;;;;;;127.80;5.37;;;2.70;99.90;;;;;;5030934;28;20080;-26
2022/05/09 00:57:28;;;;;;;;;;;1.20;99.90;;;;;;5016779;28;20046;-27
2022/05/09 01:00:00;;;;;;;138.93;5.47;;;1.30;99.90;;;;;;5014151;28;19944;-27
2022/05/09 01:02:26;;;;;;;59.40;2.60;;;1.50;99.90;;;;;;5015363;28;20489;-26
2022/05/09 01:04:57;;;;;;;94.13;4.27;;;1.80;99.90;;;;;;5014436;28;20049;-27
2022/05/09 01:07:23;;;;;;;127.23;4.87;;;1.60;99.90;;;;;;5017413;28;20053;-26
2022/05/09 01:09:49;;;;;;;50.10;4.23;;;1.40;99.90;;;;;;5013997;28;20397;-26
2022/05/09 01:12:25;;;;;;;45.70;4.30;;;1.20;99.90;;;;;;5013154;28;20042;-27
2022/05/09 01:14:51;;;;;;;112.47;5.23;;;1.10;99.90;;;;;;5013198;28;20081;-27
2022/05/09 01:17:18;;;;;;;122.07;6.33;;;0.90;99.90;;;;;;5016759;28;20234;-26
2022/05/09 01:19:47;;;;;;;12.53;4.30;;;1.20;99.90;;;;;;5014612;28;20583;-26
2022/05/09 01:22:40;;;;;;;61.20;4.90;;;1.60;99.90;;;;;;5013974;28;20033;-26
2022/05/09 01:25:10;;;;;;;30.90;4.90;;;0.70;99.90;;;;;;5028515;28;20054;-26
2022/05/09 01:27:40;;;;;;;66.10;4.47;;;0.80;99.90;;;;;;5018272;28;20063;-26
2022/05/09 01:30:12;;;;;;;110.50;5.90;;;0.70;99.90;;;;;;5013706;28;20501;-26
2022/05/09 01:33:03;;;;;;;117.28;5.45;;;0.40;99.90;;;;;;5013169;28;20054;-27
2022/05/09 01:35:38;;;;;;;58.33;3.63;;;0.80;99.90;;;;;;5018009;28;20049;-26
2022/05/09 01:38:33;;;;;;;93.50;5.10;;;0.50;99.90;;;;;;5029596;28;20049;-26
2022/05/09 01:40:59;;;;;;;69.47;6.63;;;0.40;99.90;;;;;;5015029;28;20042;-26
2022/05/09 01:43:43;;;;;;;12.07;2.77;;;0.60;99.90;;;;;;5015452;28;20053;-26
2022/05/09 01:46:12;;;;;;;3.17;2.03;;;0.30;99.90;;;;;;5013115;28;20054;-26
2022/05/09 01:51:23;;;;;;;5.23;2.37;;;0.20;99.90;;;;;;5014413;28;20120;-26
2022/05/09 01:53:51;;;;;;;2.27;2.00;;;0.50;99.90;;;;;;5013775;28;20188;-26
2022/05/09 01:56:23;;;;;;;3.90;2.27;;;0.20;99.90;;;;;;5013717;28;20048;-27
2022/05/09 01:58:49;;;;;;;3.50;2.03;;;0.30;99.90;;;;;;5013604;28;20068;-27
2022/05/09 02:01:18;;;;;;;4.53;3.00;;;0.20;99.90;;;;;;5032269;28;20049;-26
2022/05/09 02:03:47;;;;;;;6.43;3.73;;;0.30;99.90;;;;;;5034097;28;20571;-27
2022/05/09 02:06:14;;;;;;;6.00;3.80;;;0.00;99.90;;;;;;5019864;28;20046;-26
2022/05/09 02:08:40;;;;;;;5.90;3.23;;;0.30;99.90;;;;;;5014531;28;20046;-26
2022/05/09 02:11:06;;;;;;;13.07;4.73;;;0.00;99.90;;;;;;5015024;28;20120;-26
2022/05/09 02:13:33;;;;;;;9.03;4.80;;;0.50;99.90;;;;;;5014003;28;20049;-26
2022/05/09 02:15:59;;;;;;;12.13;5.80;;;0.20;99.90;;;;;;5013674;28;20513;-26
2022/05/09 02:18:25;;;;;;;17.80;6.63;;;1.40;99.90;;;;;;5021996;28;20120;-27
2022/05/09 02:20:51;;;;;;;18.17;7.17;;;0.90;99.90;;;;;;5024619;28;20041;-26
2022/05/09 02:23:17;;;;;;;16.80;7.27;;;1.10;99.90;;;;;;5017822;28;20057;-26
2022/05/09 02:25:45;;;;;;;40.20;10.13;;;1.60;99.90;;;;;;5025323;28;20064;-26
2022/05/09 02:28:13;;;;;;;25.50;10.03;;;1.60;99.90;;;;;;5016981;28;20053;-26
2022/05/09 02:30:39;;;;;;;29.70;11.03;;;1.60;99.90;;;;;;5012997;28;20496;-27
2022/05/09 02:33:07;;;;;;;25.90;9.80;;;1.80;99.90;;;;;;5029859;28;20116;-27
2022/05/09 02:35:33;;;;;;;27.57;11.03;;;1.70;99.90;;;;;;5024225;28;20045;-26
2022/05/09 02:37:59;;;;;;;27.97;11.07;;;2.30;99.90;;;;;;5014169;28;20072;-27
2022/05/09 02:40:26;;;;;;;31.30;10.43;;;2.20;99.90;;;;;;5013061;28;20046;-27
2022/05/09 02:42:57;;;;;;;41.67;11.83;;;2.00;99.90;;;;;;5014409;28;20038;-27
2022/05/09 02:45:23;;;;;;;36.37;12.70;;;2.20;99.90;;;;;;5012486;28;20050;-27
2022/05/09 02:47:50;;;;;;;42.20;12.97;;;2.30;99.90;;;;;;5012829;28;20093;-31
2022/05/09 02:50:16;;;;;;;44.93;14.27;;;2.40;99.90;;;;;;5015069;28;20104;-26
2022/05/09 02:52:43;;;;;;;33.13;13.53;;;2.50;1.00;;;;;;5013985;28;20100;-27
2022/05/09 02:55:10;;;;;;;38.97;13.30;;;2.40;1.00;;;;;;5013813;28;20123;-27
2022/05/09 02:57:37;;;;;;;37.77;13.40;;;2.80;1.00;;;;;;5012926;28;20504;-26
2022/05/09 03:00:06;;;;;;;35.70;11.80;;;2.30;1.00;;;;;;5013227;28;20121;-26
2022/05/09 03:02:32;;;;;;;25.70;10.47;;;2.40;1.00;;;;;;5012817;28;20037;-26
2022/05/09 03:04:57;;;;;;;25.03;9.30;;;2.60;1.00;;;;;;5014284;28;20074;-26
2022/05/09 03:07:23;;;;;;;23.43;8.27;;;3.10;1.00;;;;;;4995740;28;20076;-27
2022/05/09 03:09:49;;;;;;;23.37;8.63;;;2.60;1.00;;;;;;5013975;28;20049;-27
2022/05/09 03:12:19;;;;;;;19.17;8.00;;;2.40;1.00;;;;;;5012339;28;20042;-26
2022/05/09 03:14:47;;;;;;;19.80;7.00;;;2.30;1.00;;;;;;5013819;28;20424;-26
2022/05/09 03:17:13;;;;;;;219.53;17.80;;;3.20;1.00;;;;;;5027439;28;20047;-27
2022/05/09 03:19:39;;;;;;;431.77;23.30;;;2.10;1.00;;;;;;5013625;28;20057;-27
2022/05/09 03:22:06;;;;;;;25.20;4.67;;;1.90;1.00;;;;;;5013213;28;20060;-27
2022/05/09 03:24:32;;;;;;;25.80;6.63;;;1.60;1.00;;;;;;5014090;28;20229;-26
2022/05/09 03:26:59;;;;;;;14.17;5.90;;;2.40;1.00;;;;;;5013072;28;20576;-26
2022/05/09 03:29:26;;;;;;;9.30;4.47;;;1.50;1.00;;;;;;5012978;28;20121;-26
2022/05/09 03:31:54;;;;;;;28.63;5.60;;;1.60;1.00;;;;;;5012573;28;20052;-27
2022/05/09 03:34:20;;;;;;;502.70;20.77;;;1.50;1.00;;;;;;5019127;28;20045;-27
2022/05/09 03:36:47;;;;;;;33.57;5.57;;;1.30;1.00;;;;;;5032752;28;20057;-26
2022/05/09 03:39:13;;;;;;;602.97;25.90;;;1.20;1.00;;;;;;5032243;28;20057;-26
2022/05/09 03:41:39;;;;;;;340.43;17.07;;;1.30;1.00;;;;;;5032078;28;20052;-27
2022/05/09 03:44:05;;;;;;;301.17;14.73;;;1.20;1.00;;;;;;5032011;28;20465;-27
2022/05/09 03:46:31;;;;;;;197.50;13.27;;;1.00;1.00;;;;;;5014605;28;20488;-26
2022/05/09 03:48:57;;;;;;;212.80;12.80;;;0.80;1.00;;;;;;5012820;28;20053;-27
2022/05/09 03:51:23;;;;;;;305.67;15.30;;;0.90;1.00;;;;;;5011591;28;20081;-27
2022/05/09 03:53:49;;;;;;;256.33;16.53;;;0.60;1.00;;;;;;5016435;28;20050;-26
2022/05/09 03:56:15;;;;;;;168.00;12.87;;;0.80;1.00;;;;;;4996277;28;20121;-28
2022/05/09 03:58:41;;;;;;;83.10;11.33;;;0.40;1.00;;;;;;5025261;28;20504;-26
2022/05/09 04:01:08;;;;;;;138.47;10.53;;;0.70;1.00;;;;;;5015600;28;20144;-26
2022/05/09 04:03:34;;;;;;;190.33;15.23;;;0.00;1.00;;;;;;5016009;28;20046;-27
2022/05/09 04:06:00;;;;;;;169.20;11.37;;;0.20;1.00;;;;;;5016432;28;20128;-28
2022/05/09 04:08:26;;;;;;;66.20;7.97;;;0.30;1.00;;;;;;5017728;28;20042;-27
2022/05/09 04:10:54;;;;;;;12.40;6.03;;;0.20;1.00;;;;;;5014704;28;20053;-26
2022/05/09 04:13:19;;;;;;;8.43;6.10;;;0.90;1.00;;;;;;5014710;28;20535;-26
2022/05/09 04:18:37;;;;;;;8.23;5.47;;;-0.10;1.00;;;;;;5029045;28;20055;-26
2022/05/09 04:21:03;;;;;;;9.40;6.03;;;0.30;1.00;;;;;;5016068;28;20041;-27
2022/05/09 04:23:29;;;;;;;9.07;6.10;;;-0.10;1.00;;;;;;5016091;28;20100;-26
2022/05/09 04:25:54;;;;;;;13.87;6.87;;;0.10;1.00;;;;;;5015226;28;20046;-27
2022/05/09 04:28:22;;;;;;;17.47;6.83;;;0.20;1.00;;;;;;5000018;28;20046;-27
2022/05/09 04:30:48;;;;;;;12.30;7.10;;;0.50;65.90;;;;;;5014534;28;20492;-27
2022/05/09 04:33:15;;;;;;;8.17;6.40;;;0.60;83.10;;;;;;5020407;28;20120;-27
2022/05/09 04:35:42;;;;;;;14.60;6.87;;;0.80;89.60;;;;;;5021862;28;20124;-27
2022/05/09 04:38:14;;;;;;;14.60;7.33;;;0.90;96.70;;;;;;5032983;28;20057;-26
2022/05/09 04:40:41;;;;;;;14.47;7.83;;;1.00;99.90;;;;;;5015754;28;20061;-27
2022/05/09 04:43:07;;;;;;;18.50;8.10;;;1.50;99.90;;;;;;5015914;28;20050;-26
2022/05/09 04:45:33;;;;;;;14.60;7.97;;;1.60;99.90;;;;;;5015490;28;20069;-26
2022/05/09 04:47:59;;;;;;;13.57;7.53;;;2.00;99.90;;;;;;5015519;28;20057;-26
2022/05/09 04:50:27;;;;;;;19.63;10.00;;;2.00;99.90;;;;;;5015919;28;20042;-26
2022/05/09 04:52:53;;;;;;;23.67;10.20;;;2.20;99.90;;;;;;5015597;28;20132;-26
2022/05/09 04:55:19;;;;;;;18.50;8.70;;;2.40;99.90;;;;;;5021174;28;20049;-26
2022/05/09 04:57:47;;;;;;;24.03;11.10;;;2.50;99.90;;;;;;5018332;28;20377;-27
2022/05/09 05:00:15;;;;;;;25.40;11.20;;;2.70;99.90;;;;;;5024458;28;20060;-26
2022/05/09 05:02:41;;;;;;;29.73;12.27;;;3.00;99.90;;;;;;5014693;28;20096;-27
2022/05/09 05:05:08;;;;;;;30.57;13.07;;;3.50;99.90;;;;;;5014341;28;20125;-26
2022/05/09 05:07:34;;;;;;;41.83;13.50;;;3.60;99.90;;;;;;5014599;28;20129;-26
2022/05/09 05:10:00;;;;;;;32.57;13.37;;;4.10;1.00;;;;;;5015326;28;20121;-27
2022/05/09 05:12:26;;;;;;;37.00;12.90;;;4.20;1.00;;;;;;5015622;28;20446;-27
2022/05/09 05:14:51;;;;;;;29.17;13.23;;;4.60;1.00;;;;;;5013725;28;20058;-27
2022/05/09 05:17:18;;;;;;;33.30;13.45;;;5.00;1.00;;;;;;5015643;28;20049;-27
2022/05/09 05:19:44;;;;;;;30.43;13.93;;;4.80;1.00;;;;;;5022499;28;20558;-27
2022/05/09 05:22:15;;;;;;;28.45;13.43;;;5.40;1.00;;;;;;5022820;28;20508;-27
2022/05/09 05:24:43;;;;;;;33.67;13.07;;;5.20;1.00;;;;;;5014033;28;20100;-27
2022/05/09 05:27:10;;;;;;;40.25;14.30;;;5.90;1.00;;;;;;5014389;28;20096;-27
2022/05/09 05:29:35;;;;;;;36.92;13.90;;;5.50;1.00;;;;;;5027989;28;20046;-27
2022/05/09 05:32:16;;;;;;;38.25;13.48;;;5.80;1.00;;;;;;5015699;28;20136;-27
2022/05/09 05:34:42;;;;;;;36.30;13.40;;;5.70;1.00;;;;;;5001034;28;20100;-27
2022/05/09 05:37:07;;;;;;;27.17;13.48;;;6.10;1.00;;;;;;5016326;28;20046;-27
2022/05/09 05:39:36;;;;;;;27.13;11.38;;;7.00;49.10;;;;;;5019759;28;20045;-27
2022/05/09 05:42:04;;;;;;;28.52;11.73;;;7.80;97.60;;;;;;5014422;28;20049;-27
2022/05/09 05:44:30;;;;;;;28.33;10.60;;;8.80;22.40;;;;;;5014326;28;20054;-27
2022/05/09 05:46:56;;;;;;;23.50;9.70;;;9.60;1.00;;;;;;5014994;28;20052;-27
2022/05/09 05:49:21;;;;;;;30.00;9.38;;;10.30;3.10;;;;;;5014599;28;20041;-27
2022/05/09 05:51:47;;;;;;;18.30;8.13;;;10.80;99.90;;;;;;5014665;28;20049;-27
2022/05/09 05:54:12;;;;;;;22.70;6.90;;;11.20;99.90;;;;;;5012831;28;20037;-27
2022/05/09 05:56:38;;;;;;;17.73;7.43;;;11.70;1.00;;;;;;5012794;28;20497;-27
2022/05/09 05:59:05;;;;;;;23.92;7.18;;;11.60;1.00;;;;;;5025661;28;20041;-28
2022/05/09 06:01:33;;;;;;;18.17;6.22;;;11.90;1.00;;;;;;5013513;28;20041;-27
2022/05/09 06:04:00;;;;;;;18.45;6.32;;;12.10;1.00;;;;;;4996525;28;20162;-27
2022/05/09 06:06:26;;;;;;;15.68;5.65;;;12.20;99.90;;;;;;5014257;28;20042;-27
2022/05/09 06:08:52;;;;;;;21.77;6.60;;;12.20;99.90;;;;;;5014279;28;20053;-27
2022/05/09 06:11:18;;;;;;;15.88;6.25;;;12.20;99.90;;;;;;5015403;28;20038;-28
2022/05/09 06:13:44;;;;;;;20.98;5.90;;;12.30;99.90;;;;;;5014116;28;20482;-27
2022/05/09 06:16:10;;;;;;;15.95;6.10;;;12.20;99.90;;;;;;4998586;28;20057;-27
2022/05/09 06:18:36;;;;;;;20.35;5.65;;;12.10;99.90;;;;;;5013551;28;20053;-27
2022/05/09 06:21:03;;;;;;;12.13;5.03;;;12.00;99.90;;;;;;4997478;28;20068;-27
2022/05/09 06:23:29;;;;;;;14.63;5.22;;;11.80;1.00;;;;;;5014421;28;20057;-27
2022/05/09 06:25:56;;;;;;;16.95;5.47;;;11.70;1.00;;;;;;5012853;28;20111;-27
2022/05/09 06:28:23;;;;;;;15.90;6.13;;;11.60;1.00;;;;;;5011975;28;20058;-28
2022/05/09 06:30:49;;;;;;;18.85;6.78;;;11.50;1.00;;;;;;5012204;28;20057;-27
2022/05/09 06:33:23;;;;;;;16.15;4.95;;;11.30;1.00;;;;;;5017173;28;20116;-28
2022/05/09 06:35:51;;;;;;;21.55;6.22;;;11.30;1.00;;;;;;5013685;28;20073;-27
2022/05/09 06:38:18;;;;;;;25.60;6.35;;;11.20;42.00;;;;;;5014180;28;20093;-27
2022/05/09 06:40:44;;;;;;;18.90;6.13;;;11.30;99.90;;;;;;5013637;28;20449;-28
2022/05/09 06:43:10;;;;;;;21.63;5.30;;;11.20;95.00;;;;;;5014768;28;20050;-27
2022/05/09 06:45:37;;;;;;;24.02;7.32;;;11.30;96.20;;;;;;5014070;28;20489;-27
2022/05/09 06:48:02;;;;;;;21.50;6.43;;;11.30;50.40;;;;;;5014057;28;20050;-27
2022/05/09 06:50:31;;;;;;;20.67;6.30;;;11.30;42.50;;;;;;5014553;28;20045;-28
2022/05/09 06:52:58;;;;;;;17.13;6.82;;;11.40;1.00;;;;;;5012889;28;20502;-27
2022/05/09 06:55:24;;;;;;;20.67;6.68;;;11.50;1.00;;;;;;5013489;28;20057;-28
2022/05/09 06:57:50;;;;;;;21.55;6.75;;;11.60;1.00;;;;;;5014487;28;20050;-26
2022/05/09 07:00:22;;;;;;;21.85;6.97;;;11.60;1.00;;;;;;5017750;28;20196;-27
2022/05/09 07:02:49;;;;;;;23.20;7.95;;;11.70;1.00;;;;;;5021015;28;20041;-26
2022/05/09 07:05:17;;;;;;;15.38;5.72;;;11.90;1.00;;;;;;5033480;28;20057;-26
2022/05/09 07:07:44;;;;;;;16.92;5.75;;;11.90;1.00;;;;;;5033421;28;20505;-26
2022/05/09 07:10:12;;;;;;;17.00;5.47;;;12.00;1.00;;;;;;5033469;28;20124;-26
2022/05/09 07:12:49;;;;;;;13.80;4.85;;;12.20;99.90;;;;;;5033505;28;20052;-26
2022/05/09 07:15:18;;;;;;;19.65;6.20;;;12.00;99.90;;;;;;5031229;28;20060;-26
2022/05/09 07:17:45;;;;;;;18.48;5.65;;;12.10;99.90;;;;;;5025683;28;20089;-26
2022/05/09 07:20:12;;;;;;;16.40;5.75;;;12.10;99.90;;;;;;5019898;28;20050;-26
2022/05/09 07:22:38;;;;;;;19.88;6.65;;;12.20;99.90;;;;;;5029988;28;20046;-26
2022/05/09 07:25:04;;;;;;;12.45;5.20;;;12.30;99.90;;;;;;5032226;28;20481;-27
2022/05/09 07:27:30;;;;;;;23.88;6.03;;;12.40;99.90;;;;;;5037360;28;20049;-26
2022/05/09 07:29:56;;;;;;;28.38;5.85;;;12.60;99.90;;;;;;5012710;28;20041;-26
2022/05/09 07:32:23;;;;;;;17.35;4.57;;;12.70;99.90;;;;;;5023092;28;20092;-27
2022/05/09 07:34:49;;;;;;;18.92;5.68;;;12.80;99.90;;;;;;5016550;28;20108;-26
2022/05/09 07:37:15;;;;;;;14.77;5.63;;;13.00;99.90;;;;;;5017400;28;20432;-27
2022/05/09 07:39:41;;;;;;;12.57;5.38;;;13.20;99.90;;;;;;5021428;28;20073;-27
2022/05/09 07:42:08;;;;;;;18.75;7.05;;;13.30;99.90;;;;;;5021906;28;20062;-27
2022/05/09 07:44:34;;;;;;;14.43;4.80;;;13.40;99.90;;;;;;5022628;28;20050;-26
2022/05/09 07:46:59;;;;;;;10.88;4.10;;;13.50;99.90;;;;;;5026814;28;20053;-26
2022/05/09 07:49:25;;;;;;;19.05;4.75;;;13.60;99.90;;;;;;5037475;28;20069;-26
2022/05/09 07:51:51;;;;;;;21.58;4.85;;;13.70;99.90;;;;;;5036584;28;20045;-26
2022/05/09 07:54:17;;;;;;;16.73;5.20;;;13.80;99.90;;;;;;5034468;28;20077;-26
2022/05/09 07:56:44;;;;;;;23.85;5.38;;;14.00;99.90;;;;;;5019413;28;20084;-27
2022/05/09 07:59:10;;;;;;;16.40;4.88;;;14.00;87.20;;;;;;5031950;28;20048;-27
2022/05/09 08:01:36;;;;;;;15.57;5.15;;;14.20;35.90;;;;;;5036687;28;20041;-26
2022/05/09 08:04:02;;;;;;;16.10;4.55;;;14.30;8.00;;;;;;5017534;28;20049;-26
2022/05/09 08:06:28;;;;;;;18.95;5.10;;;14.40;3.40;;;;;;5028550;28;20092;-27
2022/05/09 08:08:53;;;;;;;16.08;4.15;;;14.50;1.00;;;;;;5025663;28;20077;-26
2022/05/09 08:11:21;;;;;;;15.32;4.35;;;14.70;1.00;;;;;;5036608;28;20041;-26
2022/05/09 08:13:47;;;;;;;13.43;3.85;;;14.80;1.00;;;;;;5002669;28;20057;-26
2022/05/09 08:16:14;;;;;;;13.30;4.18;;;15.00;1.00;;;;;;5017068;28;20062;-26
2022/05/09 08:18:40;;;;;;;10.88;3.60;;;15.00;1.00;;;;;;5016939;28;20060;-26
2022/05/09 08:21:09;;;;;;;16.65;5.00;;;15.30;1.00;;;;;;5016236;28;20124;-27
2022/05/09 08:23:35;;;;;;;16.85;4.63;;;15.40;1.00;;;;;;5016665;28;20092;-26
2022/05/09 08:26:03;;;;;;;9.93;3.20;;;15.70;1.00;;;;;;5032623;28;20054;-26
2022/05/09 08:28:29;;;;;;;14.27;4.15;;;15.90;99.90;;;;;;5036367;28;20080;-26
2022/05/09 08:30:55;;;;;;;16.33;4.50;;;16.00;99.90;;;;;;5036254;28;20515;-26
2022/05/09 08:33:29;;;;;;;15.45;4.72;;;16.10;99.90;;;;;;5035213;28;20096;-26
2022/05/09 08:35:55;;;;;;;16.80;4.15;;;16.20;99.90;;;;;;5036767;28;20049;-26
2022/05/09 08:38:21;;;;;;;12.35;3.90;;;16.40;99.90;;;;;;5032123;28;20382;-26
2022/05/09 08:40:50;;;;;;;10.88;3.40;;;16.60;99.90;;;;;;5035958;28;20052;-26
2022/05/09 08:43:44;;;;;;;15.80;4.28;;;16.70;99.90;;;;;;5035979;28;20050;-26
2022/05/09 08:46:41;;;;;;;12.07;3.38;;;16.90;99.90;;;;;;5036040;28;20104;-26
2022/05/09 08:49:38;;;;;;;12.52;3.80;;;17.10;99.90;;;;;;5034346;28;20041;-26
2022/05/09 08:52:31;;;;;;;12.50;2.97;;;17.20;99.90;;;;;;5033937;28;20103;-26
2022/05/09 08:54:57;;;;;;;11.00;2.90;;;17.40;99.90;;;;;;5035506;28;20485;-26
2022/05/09 08:57:28;;;;;;;13.77;4.13;;;17.80;99.90;;;;;;5035739;28;20045;-26
2022/05/09 09:00:01;;;;;;;10.43;2.83;;;18.50;1.00;;;;;;5002944;28;20046;-26
2022/05/09 09:02:59;;;;;;;12.45;3.25;;;19.60;1.00;;;;;;5015850;28;20336;-26
2022/05/09 09:05:28;;;;;;;8.10;3.00;;;20.50;99.90;;;;;;5030979;28;20062;-26
2022/05/09 09:07:58;;;;;;;13.88;3.15;;;21.10;99.90;;;;;;5016267;28;20046;-26
2022/05/09 09:10:37;;;;;;;7.90;2.83;;;21.40;99.90;;;;;;5014870;28;20104;-27
2022/05/09 09:13:14;;;;;;;10.82;3.15;;;22.00;99.90;;;;;;5015714;28;20085;-26
2022/05/09 09:15:40;;;;;;;8.32;2.45;;;22.60;99.90;;;;;;5015632;28;20117;-26
2022/05/09 09:18:36;;;;;;;7.80;2.15;;;22.60;99.90;;;;;;5015738;28;20054;-27
2022/05/09 09:21:08;;;;;;;14.90;3.50;;;22.80;99.90;;;;;;5024006;28;20050;-26
2022/05/09 09:24:01;;;;;;;5.88;2.08;;;23.00;99.90;;;;;;5034883;28;20061;-27
2022/05/09 09:26:34;;;;;;;8.10;2.28;;;23.60;99.90;;;;;;5015509;28;20053;-27
2022/05/09 09:29:08;;;;;;;8.63;3.10;;;23.70;99.90;;;;;;5015624;28;20049;-27
2022/05/09 09:31:37;;;;;;;7.97;2.95;;;23.60;99.90;;;;;;5029335;28;20121;-27
2022/05/09 09:34:24;;;;;;;6.50;2.40;;;23.80;99.90;;;;;;5017370;28;20496;-26
2022/05/09 09:37:13;;;;;;;9.65;2.58;;;24.10;99.90;;;;;;5022686;28;20107;-27
2022/05/09 09:39:40;;;;;;;5.78;2.38;;;24.30;99.90;;;;;;5030563;28;20472;-27
2022/05/09 09:42:06;;;;;;;8.10;2.50;;;24.50;99.90;;;;;;5021188;28;21589;-27
2022/05/09 09:44:37;;;;;;;7.18;2.28;;;24.70;99.90;;;;;;5026048;28;20080;-27
2022/05/09 09:47:05;;;;;;;8.85;3.00;;;24.80;99.90;;;;;;5021136;28;20046;-26
2022/05/09 09:49:33;;;;;;;6.90;2.70;;;24.80;99.90;;;;;;5029250;28;20080;-27
2022/05/09 09:52:00;;;;;;;13.95;3.10;;;24.90;99.90;;;;;;5016222;28;20075;-27
2022/05/09 09:54:33;;;;;;;8.65;2.80;;;24.80;99.90;;;;;;5025895;28;20076;-26
2022/05/09 09:57:17;;;;;;;13.07;3.53;;;25.00;99.90;;;;;;5023556;28;20135;-27
2022/05/09 09:59:43;;;;;;;8.93;2.40;;;24.70;99.90;;;;;;5023379;28;20049;-27
2022/05/09 10:02:27;;;;;;;7.13;2.42;;;24.10;99.90;;;;;;5026382;28;20516;-27
2022/05/09 10:04:57;;;;;;;11.80;2.63;;;24.30;99.90;;;;;;5017064;28;20081;-27
2022/05/09 10:07:27;;;;;;;10.52;3.20;;;24.00;99.90;;;;;;5022894;28;20117;-27
2022/05/09 10:10:15;;;;;;;9.13;2.95;;;24.20;99.90;;;;;;5014625;28;20046;-27
2022/05/09 10:12:48;;;;;;;8.10;2.30;;;24.30;99.90;;;;;;5010110;28;20456;-27
2022/05/09 10:15:22;;;;;;;8.68;2.53;;;24.80;99.90;;;;;;5015577;28;20056;-27
2022/05/09 10:17:49;;;;;;;12.05;2.75;;;25.10;99.90;;;;;;5023604;28;20049;-27
2022/05/09 10:20:29;;;;;;;11.88;5.38;;;25.60;99.80;;;;;;5027211;28;20073;-27
2022/05/09 10:26:01;;;;;;;8.80;3.22;;;26.00;98.80;;;;;;5033457;28;20136;-26
2022/05/09 10:28:31;;;;;;;7.90;2.10;;;26.20;97.70;;;;;;5017134;28;20096;-27
2022/05/09 10:31:06;;;;;;;9.65;2.38;;;26.40;97.80;;;;;;5021819;28;20107;-27
2022/05/09 10:33:54;;;;;;;9.27;2.83;;;26.10;94.60;;;;;;5026168;28;20052;-27
2022/05/09 10:36:31;;;;;;;12.55;2.58;;;25.80;91.80;;;;;;5017682;28;20041;-27
2022/05/09 10:39:07;;;;;;;9.75;2.17;;;25.60;91.60;;;;;;5015235;28;20054;-27
2022/05/09 10:41:52;;;;;;;6.80;1.95;;;25.30;90.80;;;;;;5016579;28;20045;-27
2022/05/09 10:44:20;;;;;;;6.85;2.40;;;25.30;92.10;;;;;;5014088;28;20050;-27
2022/05/09 10:46:52;;;;;;;8.13;2.47;;;25.70;92.50;;;;;;5013660;28;20045;-27
2022/05/09 10:49:40;;;;;;;11.90;2.58;;;26.00;91.40;;;;;;5024537;28;20049;-27
2022/05/09 10:52:32;;;;;;;12.63;2.92;;;26.20;91.50;;;;;;5032354;28;20052;-27
2022/05/09 10:55:08;;;;;;;8.83;2.07;;;25.70;88.10;;;;;;5032411;28;20056;-27
2022/05/09 10:57:42;;;;;;;7.95;1.65;;;25.10;84.40;;;;;;5021669;28;20322;-27
2022/05/09 11:00:18;;;;;;;5.78;1.85;;;25.00;83.70;;;;;;5013124;28;20113;-27
2022/05/09 11:02:51;;;;;;;7.32;2.25;;;24.30;80.60;;;;;;5014859;28;20099;-27
2022/05/09 11:05:16;;;;;;;;;;;23.30;78.50;;;;;;5014313;28;20045;-27
2022/05/09 11:07:48;;;;;;;7.50;1.80;;;23.20;77.00;;;;;;5012273;28;20391;-27
2022/05/09 11:10:48;;;;;;;10.23;2.28;;;23.60;80.10;;;;;;5013813;28;20053;-27
2022/05/09 11:13:47;;;;;;;9.60;2.25;;;24.10;82.40;;;;;;5017735;28;20049;-26
2022/05/09 11:17:00;;;;;;;6.75;2.10;;;24.50;82.60;;;;;;5033819;28;20111;-27
2022/05/09 11:19:37;;;;;;;7.05;2.22;;;23.70;79.40;;;;;;5016448;28;20482;-27
2022/05/09 11:22:29;;;;;;;8.15;2.60;;;23.20;79.10;;;;;;5031211;28;20127;-26
2022/05/09 11:25:32;;;;;;;6.07;1.80;;;23.50;82.60;;;;;;5011280;28;20107;-27
2022/05/09 11:28:17;;;;;;;9.35;2.40;;;23.10;78.70;;;;;;5009403;28;20585;-27
2022/05/09 11:30:48;;;;;;;7.18;2.10;;;23.70;85.50;;;;;;5018151;28;20119;-27
2022/05/09 11:33:34;;;;;;;7.32;2.40;;;24.70;89.50;;;;;;5021647;28;20480;-27
2022/05/09 11:36:17;;;;;;;9.75;2.65;;;24.10;80.90;;;;;;5021899;28;20054;-26
2022/05/09 11:38:51;;;;;;;11.48;2.47;;;24.70;84.60;;;;;;5019453;28;20121;-27
2022/05/09 11:41:35;;;;;;;13.05;3.10;;;25.40;86.80;;;;;;5024178;28;20041;-28
2022/05/09 11:44:07;;;;;;;8.50;2.75;;;26.10;88.60;;;;;;5006806;28;20048;-27
2022/05/09 11:46:48;;;;;;;7.60;2.05;;;26.40;88.30;;;;;;4996317;28;20211;-27
2022/05/09 11:49:19;;;;;;;7.90;1.90;;;26.90;88.20;;;;;;5020559;28;20053;-27
2022/05/09 11:51:55;;;;;;;9.53;2.70;;;27.20;88.70;;;;;;5017568;28;20120;-27
2022/05/09 11:54:32;;;;;;;8.75;2.25;;;27.20;84.00;;;;;;5023137;28;20041;-27
2022/05/09 11:57:26;;;;;;;10.15;3.83;;;27.40;84.60;;;;;;5018012;28;20120;-29
2022/05/09 11:59:58;;;;;;;8.77;2.92;;;27.70;84.00;;;;;;5021938;28;20053;-28
2022/05/09 12:02:54;;;;;;;10.23;2.72;;;27.90;84.20;;;;;;5014850;28;20553;-27
2022/05/09 12:05:26;;;;;;;9.70;2.25;;;27.20;78.30;;;;;;5024646;28;20136;-27
2022/05/09 12:08:19;;;;;;;10.00;2.80;;;27.10;77.30;;;;;;5017740;28;20046;-31
2022/05/09 12:10:47;;;;;;;9.18;2.40;;;27.10;76.40;;;;;;5022904;28;20045;-27
2022/05/09 12:13:14;;;;;;;9.20;2.47;;;27.40;76.50;;;;;;5021720;28;20045;-27
2022/05/09 12:15:51;;;;;;;7.35;2.30;;;27.60;77.40;;;;;;5025412;28;20568;-28
2022/05/09 12:18:30;;;;;;;7.93;2.53;;;27.90;76.30;;;;;;5012246;28;20047;-26
2022/05/09 12:20:57;;;;;;;12.48;2.70;;;27.90;75.40;;;;;;5024717;28;20064;-27
2022/05/09 12:23:41;;;;;;;10.63;2.45;;;27.90;76.80;;;;;;5017723;28;20046;-27
2022/05/09 12:26:09;;;;;;;6.53;2.33;;;28.20;75.50;;;;;;5021192;28;20045;-29
2022/05/09 12:28:40;;;;;;;13.48;2.90;;;28.40;76.60;;;;;;5023059;28;20053;-27
2022/05/09 12:31:32;;;;;;;8.00;2.90;;;28.60;76.30;;;;;;5017834;28;20046;-27
2022/05/09 12:33:59;;;;;;;7.85;2.22;;;28.60;73.40;;;;;;5016485;28;20083;-27
2022/05/09 12:36:35;;;;;;;5.00;2.00;;;28.50;73.80;;;;;;5000903;28;20054;-27
2022/05/09 12:39:16;;;;;;;7.55;2.55;;;27.30;65.80;;;;;;5020752;28;20038;-27
2022/05/09 12:41:48;;;;;;;9.23;2.60;;;27.00;64.50;;;;;;5017174;28;20046;-27
2022/05/09 12:44:24;;;;;;;7.78;2.22;;;26.60;63.90;;;;;;5017836;28;20061;-28
2022/05/09 12:47:11;;;;;;;13.80;2.85;;;26.20;62.80;;;;;;5019371;28;20049;-27
2022/05/09 12:49:47;;;;;;;8.32;2.17;;;26.50;66.60;;;;;;5015120;28;20072;-29
2022/05/09 12:52:21;;;;;;;7.53;2.50;;;26.40;63.60;;;;;;5019149;28;20397;-27
2022/05/09 12:57:39;;;;;;;11.05;2.42;;;26.20;61.50;;;;;;5018135;28;20053;-27
2022/05/09 13:00:18;;;;;;;9.60;2.92;;;26.20;62.20;;;;;;5025709;28;20042;-27
2022/05/09 13:02:46;;;;;;;10.52;2.40;;;25.90;59.20;;;;;;5018107;28;20053;-27
2022/05/09 13:05:13;;;;;;;6.32;2.00;;;26.10;64.00;;;;;;5018538;28;20096;-31
2022/05/09 13:07:58;;;;;;;9.45;2.13;;;26.70;66.10;;;;;;4985186;28;20095;-27
2022/05/09 13:10:25;;;;;;;7.40;2.55;;;26.40;63.30;;;;;;5027475;28;20501;-27
2022/05/09 13:12:58;;;;;;;9.55;2.22;;;26.20;63.90;;;;;;5027773;28;20099;-27
2022/05/09 13:15:25;;;;;;;11.07;2.00;;;26.60;65.90;;;;;;5017847;28;20049;-27